North San Ysidro, New Mexico
Current Conditions -  °F | °C
As of 6:53 AM on Sunday 25 Jan 2015 (Local Time) from KLVS Reporting Station
Clear Clear  
Wind Chill: 24°   Ceiling: Unl
Heat Index: 29°   Visibility: 10mi
Dew Point: 13°   Wind: 5mph
Humidity: 51%   Direction: NA
Pressure: 30.23"   Gusts: NA
Location:  35.4225°N, 105.56°W
Report Text: KLVS 251353Z AUTO VRB04KT 10SM CLR M02/M11 A3023 RMK AO2 SLP221 T10171106
Loading
Personal Weather Stations






























Interactive Weather Map New forecast layout! Learn more

10-Day Weather Forecast

Advertisements
Track Severe Weather on mobile